Shelby, Texas
Current Conditions -  °F | °C
As of 12:30 PM on Saturday 20 Dec 2014 (Local Time) from K3T5 Reporting Station
Overcast Overcast  
Wind Chill: 56°   Ceiling: 1400
Heat Index: 56°   Visibility: 10mi
Dew Point: 50°   Wind: 5mph
Humidity: 81%   Direction: 20°NNE
Pressure: 30.18"   Gusts: NA
Location:  29.8816°N, 96.6536°W
Report Text: K3T5 201830Z AUTO 02004KT 10SM OVC014 13/10 A3018 RMK AO2 T01310100
Loading
Personal Weather Stations






























Interactive Weather Map New forecast layout! Learn more

10-Day Weather Forecast

Advertisements
Track Severe Weather on mobile